createdAt,value
2022-07-29T00:01:05.151Z,18.40
2022-07-29T00:03:32.201Z,18.40
2022-07-29T00:05:59.390Z,18.40
2022-07-29T00:08:27.877Z,18.30
2022-07-29T00:10:55.003Z,18.30
2022-07-29T00:13:31.819Z,18.30
2022-07-29T00:16:03.768Z,18.20
2022-07-29T00:18:32.667Z,18.20
2022-07-29T00:20:59.771Z,18.20
2022-07-29T00:23:27.277Z,18.20
2022-07-29T00:25:54.345Z,18.10
2022-07-29T00:28:21.378Z,18.10
2022-07-29T00:30:48.548Z,18.10
2022-07-29T00:33:15.669Z,18.10
2022-07-29T00:35:45.327Z,18.10
2022-07-29T00:38:17.324Z,18.10
2022-07-29T00:40:45.128Z,18.00
2022-07-29T00:43:14.108Z,18.10
2022-07-29T00:45:44.717Z,18.10
2022-07-29T00:48:11.832Z,18.00
2022-07-29T00:50:39.467Z,18.10
2022-07-29T00:53:11.516Z,18.00
2022-07-29T00:55:38.675Z,18.10
2022-07-29T00:58:07.467Z,18.00
2022-07-29T01:00:35.586Z,18.00
2022-07-29T01:03:02.664Z,18.00
2022-07-29T01:05:49.993Z,18.00
2022-07-29T01:08:18.785Z,18.00
2022-07-29T01:10:47.796Z,18.00
2022-07-29T01:13:17.379Z,17.90
2022-07-29T01:15:55.501Z,18.00
2022-07-29T01:18:34.089Z,17.90
2022-07-29T01:21:33.710Z,17.90
2022-07-29T01:24:08.734Z,18.00
2022-07-29T01:27:30.846Z,18.00
2022-07-29T01:30:00.285Z,18.00
2022-07-29T01:32:35.719Z,18.00
2022-07-29T01:35:30.949Z,18.10
2022-07-29T01:38:20.699Z,18.20
2022-07-29T01:41:08.313Z,18.30
2022-07-29T01:43:50.581Z,18.20
2022-07-29T01:46:24.330Z,18.30
2022-07-29T01:49:00.702Z,18.40
2022-07-29T01:51:42.468Z,18.40
2022-07-29T01:54:17.897Z,18.40
2022-07-29T01:56:48.338Z,18.40
2022-07-29T01:59:17.195Z,18.40
2022-07-29T02:01:45.250Z,18.30
2022-07-29T02:04:28.994Z,18.30
2022-07-29T02:07:01.662Z,18.30
2022-07-29T02:09:30.575Z,18.30
2022-07-29T02:12:00.278Z,18.30
2022-07-29T02:14:29.625Z,18.30
2022-07-29T02:16:59.287Z,18.30
2022-07-29T02:19:28.368Z,18.30
2022-07-29T02:21:57.024Z,18.20
2022-07-29T02:24:25.635Z,18.30
2022-07-29T02:26:56.141Z,18.20
2022-07-29T02:29:25.927Z,18.30
2022-07-29T02:31:53.902Z,18.20
2022-07-29T02:34:22.214Z,18.20
2022-07-29T02:36:50.471Z,18.20
2022-07-29T02:39:18.228Z,18.20
2022-07-29T02:41:51.193Z,18.10
2022-07-29T02:44:21.516Z,18.10
2022-07-29T02:47:00.175Z,18.00
2022-07-29T02:49:36.600Z,18.10
2022-07-29T02:52:11.283Z,18.10
2022-07-29T02:54:54.882Z,18.00
2022-07-29T02:57:54.095Z,18.00
2022-07-29T03:00:24.775Z,17.90
2022-07-29T03:02:54.753Z,18.00
2022-07-29T03:05:23.605Z,18.00
2022-07-29T03:07:58.089Z,17.90
2022-07-29T03:10:27.290Z,18.00
2022-07-29T03:12:56.402Z,18.00
2022-07-29T03:15:24.865Z,17.90
2022-07-29T03:17:53.615Z,17.90
2022-07-29T03:20:20.778Z,17.90
2022-07-29T03:22:50.697Z,18.00
2022-07-29T03:25:20.557Z,17.90
2022-07-29T03:27:49.389Z,18.00
2022-07-29T03:30:22.142Z,17.90
2022-07-29T03:32:51.150Z,18.00
2022-07-29T03:35:20.294Z,18.00
2022-07-29T03:37:47.661Z,18.00
2022-07-29T03:40:20.951Z,18.00
2022-07-29T03:42:49.805Z,17.90
2022-07-29T03:45:19.143Z,17.90
2022-07-29T03:47:58.462Z,17.90
2022-07-29T03:50:28.474Z,18.00
2022-07-29T03:52:55.476Z,18.00
2022-07-29T03:55:23.009Z,18.00
2022-07-29T03:57:51.587Z,17.90
2022-07-29T04:00:19.032Z,18.00
2022-07-29T04:02:49.466Z,17.90
2022-07-29T04:05:17.359Z,18.00
2022-07-29T04:07:48.603Z,18.00
2022-07-29T04:10:26.910Z,18.00
2022-07-29T04:12:59.056Z,18.00
2022-07-29T04:15:26.332Z,18.10
2022-07-29T04:17:58.080Z,18.10
2022-07-29T04:20:24.990Z,18.10
2022-07-29T04:22:51.973Z,18.20
2022-07-29T04:25:18.939Z,18.30
2022-07-29T04:28:04.047Z,18.30
2022-07-29T04:30:32.847Z,18.30
2022-07-29T04:33:02.004Z,18.40
2022-07-29T04:35:37.891Z,18.40
2022-07-29T04:38:06.929Z,18.40
2022-07-29T04:40:34.875Z,18.50
2022-07-29T04:43:05.767Z,18.50
2022-07-29T04:45:33.022Z,18.40
2022-07-29T04:47:59.948Z,18.40
2022-07-29T04:50:26.937Z,18.40
2022-07-29T04:52:53.829Z,18.40
2022-07-29T04:55:20.895Z,18.40
2022-07-29T04:57:47.763Z,18.40
2022-07-29T05:00:15.228Z,18.40
2022-07-29T05:02:42.225Z,18.40
2022-07-29T05:05:09.646Z,18.50
2022-07-29T05:07:36.687Z,18.50
2022-07-29T05:10:04.601Z,18.50
2022-07-29T05:12:31.657Z,18.60
2022-07-29T05:14:58.676Z,18.60
2022-07-29T05:17:25.650Z,18.70
2022-07-29T05:19:52.636Z,18.80
2022-07-29T05:22:22.850Z,18.80
2022-07-29T05:24:49.753Z,18.90
2022-07-29T05:27:16.724Z,18.90
2022-07-29T05:29:45.789Z,18.90
2022-07-29T05:32:13.961Z,19.00
2022-07-29T05:34:50.306Z,19.00
2022-07-29T05:37:19.591Z,19.10
2022-07-29T05:39:48.553Z,19.00
2022-07-29T05:42:17.351Z,18.90
2022-07-29T05:44:44.290Z,18.80
2022-07-29T05:47:11.184Z,18.80
2022-07-29T05:49:38.190Z,18.70
2022-07-29T05:52:05.630Z,18.70
2022-07-29T05:54:32.605Z,18.70
2022-07-29T05:56:59.494Z,18.70
2022-07-29T05:59:30.304Z,18.80
2022-07-29T06:01:58.426Z,19.00
2022-07-29T06:04:25.757Z,19.10
2022-07-29T06:06:52.800Z,19.10
2022-07-29T06:09:20.019Z,19.10
2022-07-29T06:11:47.113Z,19.30
2022-07-29T06:14:14.593Z,19.40
2022-07-29T06:16:42.183Z,19.40
2022-07-29T06:19:09.607Z,19.40
2022-07-29T06:21:38.657Z,19.40
2022-07-29T06:24:09.166Z,19.50
2022-07-29T06:26:39.626Z,19.50
2022-07-29T06:29:07.878Z,19.50
2022-07-29T06:31:35.382Z,19.50
2022-07-29T06:34:02.381Z,19.40
2022-07-29T06:36:30.470Z,19.30
2022-07-29T06:38:57.462Z,19.30
2022-07-29T06:41:24.963Z,19.40
2022-07-29T06:43:55.202Z,19.50
2022-07-29T06:46:24.250Z,19.50
2022-07-29T06:48:53.022Z,19.50
2022-07-29T06:51:23.319Z,19.40
2022-07-29T06:53:59.418Z,19.60
2022-07-29T06:56:38.537Z,20.10
2022-07-29T06:59:10.660Z,20.60
2022-07-29T07:01:39.444Z,21.00
2022-07-29T07:04:06.983Z,21.20
2022-07-29T07:06:33.861Z,21.10
2022-07-29T07:09:00.866Z,21.10
2022-07-29T07:11:28.131Z,21.30
2022-07-29T07:13:59.270Z,21.60
2022-07-29T07:16:29.492Z,22.00
2022-07-29T07:18:56.372Z,22.50
2022-07-29T07:21:23.575Z,22.80
2022-07-29T07:23:50.452Z,22.90
2022-07-29T07:26:17.417Z,22.60
2022-07-29T07:28:44.386Z,22.40
2022-07-29T07:31:12.230Z,22.60
2022-07-29T07:33:39.450Z,22.70
2022-07-29T07:36:06.798Z,22.50
2022-07-29T07:38:35.698Z,22.20
2022-07-29T07:41:03.036Z,22.00
2022-07-29T07:43:30.109Z,22.00
2022-07-29T07:45:57.049Z,22.20
2022-07-29T07:48:24.131Z,22.40
2022-07-29T07:50:51.684Z,22.70
2022-07-29T07:53:18.833Z,23.50
2022-07-29T07:56:09.922Z,25.10
2022-07-29T07:58:34.049Z,25.70
2022-07-29T08:01:01.050Z,26.00
2022-07-29T08:03:28.069Z,26.70
2022-07-29T08:05:55.356Z,26.30
2022-07-29T08:08:23.393Z,26.90
2022-07-29T08:10:53.425Z,27.10
2022-07-29T08:13:22.095Z,27.50
2022-07-29T08:15:58.496Z,27.60
2022-07-29T08:18:26.871Z,27.50
2022-07-29T08:20:53.903Z,27.00
2022-07-29T08:23:21.058Z,27.60
2022-07-29T08:25:50.339Z,28.00
2022-07-29T08:28:18.198Z,28.90
2022-07-29T08:30:45.673Z,29.70
2022-07-29T08:33:15.357Z,29.20
2022-07-29T08:35:42.317Z,28.10
2022-07-29T08:38:09.195Z,27.00
2022-07-29T08:40:36.074Z,26.40
2022-07-29T08:43:09.639Z,26.20
2022-07-29T08:45:47.405Z,26.50
2022-07-29T08:48:17.533Z,26.80
2022-07-29T08:50:46.166Z,27.00
2022-07-29T08:53:16.298Z,27.60
2022-07-29T08:55:48.212Z,28.60
2022-07-29T08:58:15.988Z,29.40
2022-07-29T09:00:46.377Z,29.00
2022-07-29T09:03:16.766Z,28.90
2022-07-29T09:05:48.088Z,28.90
2022-07-29T09:08:19.228Z,29.00
2022-07-29T09:10:46.247Z,29.30
2022-07-29T09:13:13.213Z,29.50
2022-07-29T09:15:40.092Z,29.40
2022-07-29T09:18:07.012Z,29.20
2022-07-29T09:20:52.449Z,30.00
2022-07-29T09:23:23.262Z,30.80
2022-07-29T09:25:51.717Z,31.30
2022-07-29T09:28:19.528Z,32.30
2022-07-29T09:30:54.408Z,32.70
2022-07-29T09:33:25.371Z,32.40
2022-07-29T09:36:10.085Z,31.10
2022-07-29T09:38:40.134Z,31.20
2022-07-29T09:41:09.072Z,31.90
2022-07-29T09:43:36.097Z,31.70
2022-07-29T09:46:13.741Z,31.90
2022-07-29T09:48:40.709Z,31.30
2022-07-29T09:51:26.989Z,31.60
2022-07-29T09:54:29.401Z,30.90
2022-07-29T09:56:57.115Z,29.80
2022-07-29T09:59:27.543Z,29.10
2022-07-29T10:01:55.204Z,28.30
2022-07-29T10:04:22.568Z,28.50
2022-07-29T10:07:05.388Z,28.60
2022-07-29T10:09:33.671Z,29.10
2022-07-29T10:12:18.693Z,29.10
2022-07-29T10:14:45.783Z,28.90
2022-07-29T10:17:12.671Z,29.10
2022-07-29T10:19:40.648Z,29.00
2022-07-29T10:22:09.980Z,28.40
2022-07-29T10:24:38.898Z,27.90
2022-07-29T10:27:07.949Z,27.70
2022-07-29T10:29:35.190Z,28.30
2022-07-29T10:32:34.459Z,28.80
2022-07-29T10:35:37.026Z,28.90
2022-07-29T10:38:45.647Z,29.10
2022-07-29T10:41:46.990Z,28.90
2022-07-29T10:44:24.768Z,28.40
2022-07-29T10:46:52.870Z,28.10
2022-07-29T10:49:26.064Z,28.00
2022-07-29T10:52:10.619Z,27.90
2022-07-29T10:54:48.763Z,27.50
2022-07-29T10:57:53.593Z,27.30
2022-07-29T11:00:31.081Z,27.20
2022-07-29T11:02:59.438Z,27.20
2022-07-29T11:05:32.110Z,27.00
2022-07-29T11:08:26.320Z,26.80
2022-07-29T11:11:44.079Z,26.50
2022-07-29T11:14:19.929Z,26.30
2022-07-29T11:17:06.551Z,26.20
2022-07-29T11:19:34.462Z,25.90
2022-07-29T11:22:03.065Z,25.50
2022-07-29T11:24:35.242Z,25.30
2022-07-29T11:27:29.773Z,25.00
2022-07-29T11:30:03.488Z,24.80
2022-07-29T11:32:41.992Z,24.60
2022-07-29T11:35:38.347Z,24.30
2022-07-29T11:38:32.117Z,23.90
2022-07-29T11:41:38.262Z,23.60
2022-07-29T11:44:08.821Z,23.40
2022-07-29T11:46:50.612Z,23.40
2022-07-29T11:49:35.840Z,23.30
2022-07-29T11:52:04.275Z,23.10
2022-07-29T11:54:57.117Z,23.10
2022-07-29T11:57:22.153Z,23.10
2022-07-29T11:59:49.783Z,23.00
2022-07-29T12:02:37.628Z,22.70
2022-07-29T12:05:10.898Z,22.50
2022-07-29T12:07:52.987Z,22.50
2022-07-29T12:10:30.008Z,22.40
2022-07-29T12:12:57.951Z,22.30
2022-07-29T12:15:39.242Z,22.20
2022-07-29T12:18:16.109Z,22.20
2022-07-29T12:20:46.039Z,22.10
2022-07-29T12:23:13.357Z,22.00
2022-07-29T12:25:44.742Z,22.00
2022-07-29T12:28:26.667Z,21.90
2022-07-29T12:30:54.288Z,21.80
2022-07-29T12:33:27.614Z,21.80
2022-07-29T12:36:03.817Z,21.80
2022-07-29T12:38:35.877Z,21.80
2022-07-29T12:41:04.567Z,21.90
2022-07-29T12:43:31.757Z,21.80
2022-07-29T12:45:59.134Z,21.90
2022-07-29T12:48:40.249Z,22.00
2022-07-29T12:51:09.778Z,22.00
2022-07-29T12:53:37.533Z,21.80
2022-07-29T12:56:20.622Z,21.60
2022-07-29T12:58:53.041Z,21.50
2022-07-29T13:01:21.925Z,21.40
2022-07-29T13:04:01.677Z,21.30
2022-07-29T13:06:37.423Z,21.30
2022-07-29T13:09:14.398Z,21.00
2022-07-29T13:11:48.788Z,20.80
2022-07-29T13:14:31.461Z,20.70
2022-07-29T13:17:07.100Z,20.80
2022-07-29T13:19:43.152Z,20.70
2022-07-29T13:22:11.755Z,20.70
2022-07-29T13:24:57.021Z,20.70
2022-07-29T13:27:26.679Z,20.90
2022-07-29T13:29:55.489Z,20.90
2022-07-29T13:32:28.303Z,21.10
2022-07-29T13:34:57.544Z,21.40
2022-07-29T13:37:25.279Z,21.40
2022-07-29T13:39:54.561Z,21.60
2022-07-29T13:42:22.240Z,21.70
2022-07-29T13:44:51.806Z,21.60
2022-07-29T13:47:19.767Z,21.50
2022-07-29T13:49:46.748Z,21.70
2022-07-29T13:52:13.927Z,21.80
2022-07-29T13:54:42.506Z,21.90
2022-07-29T13:57:11.836Z,22.20
2022-07-29T13:59:42.957Z,22.50
2022-07-29T14:02:11.178Z,22.70
2022-07-29T14:04:39.417Z,22.70
2022-07-29T14:07:08.023Z,23.00
2022-07-29T14:09:41.197Z,23.20
2022-07-29T14:12:09.567Z,23.50
2022-07-29T14:14:37.787Z,23.70
2022-07-29T14:17:07.753Z,23.70
2022-07-29T14:19:36.787Z,23.50
2022-07-29T14:22:08.712Z,23.30
2022-07-29T14:24:37.197Z,23.00
2022-07-29T14:27:05.053Z,23.00
2022-07-29T14:29:37.775Z,23.00
2022-07-29T14:32:09.985Z,23.00
2022-07-29T14:34:38.451Z,23.10
2022-07-29T14:37:09.576Z,23.10
2022-07-29T14:39:43.448Z,23.00
2022-07-29T14:42:12.719Z,22.80
2022-07-29T14:44:40.824Z,22.80
2022-07-29T14:47:08.504Z,23.00
2022-07-29T14:49:36.114Z,22.90
2022-07-29T14:52:03.866Z,23.00
2022-07-29T14:54:30.919Z,23.10
2022-07-29T14:57:00.675Z,23.30
2022-07-29T14:59:28.066Z,23.50
2022-07-29T15:01:55.381Z,23.70
2022-07-29T15:04:22.321Z,23.80
2022-07-29T15:06:49.566Z,23.90
2022-07-29T15:09:16.748Z,23.90
2022-07-29T15:11:43.753Z,24.00
2022-07-29T15:14:10.783Z,24.00
2022-07-29T15:16:39.303Z,24.00
2022-07-29T15:19:11.071Z,24.20
2022-07-29T15:21:48.097Z,24.40
2022-07-29T15:24:17.502Z,24.30
2022-07-29T15:26:44.974Z,24.00
2022-07-29T15:29:11.894Z,23.80
2022-07-29T15:31:39.598Z,23.80
2022-07-29T15:34:07.850Z,23.80
2022-07-29T15:36:51.315Z,23.90
2022-07-29T15:39:20.016Z,24.00
2022-07-29T15:41:47.175Z,23.90
2022-07-29T15:44:14.077Z,24.00
2022-07-29T15:47:00.108Z,23.90
2022-07-29T15:49:48.637Z,23.80
2022-07-29T15:52:25.304Z,23.80
2022-07-29T15:54:57.721Z,23.70
2022-07-29T15:57:25.688Z,23.80
2022-07-29T15:59:52.905Z,23.90
2022-07-29T16:02:19.937Z,23.90
2022-07-29T16:04:47.288Z,24.00
2022-07-29T16:07:14.973Z,24.10
2022-07-29T16:09:42.812Z,24.10
2022-07-29T16:12:14.858Z,23.90
2022-07-29T16:14:43.074Z,23.80
2022-07-29T16:17:14.455Z,23.90
2022-07-29T16:19:43.236Z,23.90
2022-07-29T16:22:10.604Z,23.90
2022-07-29T16:24:38.644Z,23.80
2022-07-29T16:27:09.403Z,23.80
2022-07-29T16:29:37.311Z,23.70
2022-07-29T16:32:06.171Z,23.70
2022-07-29T16:34:33.709Z,23.60
2022-07-29T16:37:01.028Z,23.50
2022-07-29T16:39:28.270Z,23.40
2022-07-29T16:41:59.873Z,23.50
2022-07-29T16:44:27.903Z,23.60
2022-07-29T16:46:58.632Z,23.70
2022-07-29T16:49:26.990Z,23.80
2022-07-29T16:51:54.024Z,23.80
2022-07-29T16:54:21.026Z,23.90
2022-07-29T16:56:48.069Z,24.10
2022-07-29T16:59:15.160Z,24.20
2022-07-29T17:01:44.823Z,24.30
2022-07-29T17:04:14.892Z,24.20
2022-07-29T17:06:42.745Z,24.30
2022-07-29T17:09:11.864Z,24.20
2022-07-29T17:11:51.728Z,24.00
2022-07-29T17:14:23.993Z,23.80
2022-07-29T17:17:01.047Z,23.70
2022-07-29T17:19:34.175Z,23.70
2022-07-29T17:22:11.762Z,23.70
2022-07-29T17:24:43.270Z,23.70
2022-07-29T17:27:10.582Z,23.60
2022-07-29T17:29:39.024Z,23.50
2022-07-29T17:32:07.943Z,23.40
2022-07-29T17:34:36.437Z,23.50
2022-07-29T17:37:04.788Z,23.50
2022-07-29T17:39:31.854Z,23.50
2022-07-29T17:41:59.415Z,23.40
2022-07-29T17:44:26.464Z,23.50
2022-07-29T17:46:53.722Z,23.40
2022-07-29T17:49:20.865Z,23.40
2022-07-29T17:51:49.417Z,23.40
2022-07-29T17:54:16.835Z,23.40
2022-07-29T17:56:43.905Z,23.40
2022-07-29T17:59:11.125Z,23.30
2022-07-29T18:01:40.248Z,23.30
2022-07-29T18:04:08.214Z,23.20
2022-07-29T18:06:35.677Z,23.20
2022-07-29T18:09:02.846Z,23.10
2022-07-29T18:11:31.743Z,23.10
2022-07-29T18:14:01.316Z,23.10
2022-07-29T18:16:29.690Z,23.10
2022-07-29T18:18:56.870Z,23.10
2022-07-29T18:21:43.503Z,23.00
2022-07-29T18:24:11.167Z,23.00
2022-07-29T18:26:38.551Z,22.90
2022-07-29T18:29:05.906Z,22.90
2022-07-29T18:31:36.556Z,22.80
2022-07-29T18:34:03.794Z,22.80
2022-07-29T18:36:31.069Z,22.80
2022-07-29T18:38:58.166Z,22.80
2022-07-29T18:41:25.186Z,22.70
2022-07-29T18:43:52.175Z,22.70
2022-07-29T18:46:19.941Z,22.60
2022-07-29T18:48:48.403Z,22.70
2022-07-29T18:51:15.451Z,22.60
2022-07-29T18:53:43.454Z,22.50
2022-07-29T18:56:10.479Z,22.50
2022-07-29T18:58:38.966Z,22.40
2022-07-29T19:01:06.496Z,22.40
2022-07-29T19:03:33.736Z,22.30
2022-07-29T19:06:01.293Z,22.30
2022-07-29T19:08:28.303Z,22.20
2022-07-29T19:10:55.387Z,22.10
2022-07-29T19:13:23.217Z,22.00
2022-07-29T19:15:50.380Z,22.00
2022-07-29T19:18:20.502Z,21.90
2022-07-29T19:20:47.484Z,21.80
2022-07-29T19:23:14.510Z,21.80
2022-07-29T19:25:53.068Z,21.70
2022-07-29T19:28:21.615Z,21.70
2022-07-29T19:30:50.339Z,21.50
2022-07-29T19:33:19.079Z,21.50
2022-07-29T19:35:49.329Z,21.40
2022-07-29T19:38:18.592Z,21.30
2022-07-29T19:40:45.558Z,21.30
2022-07-29T19:43:51.894Z,21.20
2022-07-29T19:45:59.629Z,21.10
2022-07-29T19:48:26.745Z,21.00
2022-07-29T19:50:53.752Z,20.90
2022-07-29T19:53:20.889Z,20.80
2022-07-29T19:55:47.859Z,20.80
2022-07-29T19:58:15.493Z,20.70
2022-07-29T20:00:42.540Z,20.70
2022-07-29T20:03:10.834Z,20.60
2022-07-29T20:05:37.865Z,20.60
2022-07-29T20:08:06.295Z,20.60
2022-07-29T20:10:33.701Z,20.60
2022-07-29T20:13:00.843Z,20.60
2022-07-29T20:15:27.884Z,20.70
2022-07-29T20:17:57.303Z,20.70
2022-07-29T20:20:25.367Z,20.70
2022-07-29T20:22:53.108Z,20.70
2022-07-29T20:25:20.415Z,20.70
2022-07-29T20:27:50.113Z,20.70
2022-07-29T20:30:17.720Z,20.70
2022-07-29T20:32:46.049Z,20.70
2022-07-29T20:35:14.513Z,20.70
2022-07-29T20:37:52.443Z,20.70
2022-07-29T20:40:24.390Z,20.70
2022-07-29T20:42:52.055Z,20.60
2022-07-29T20:45:20.292Z,20.60
2022-07-29T20:47:47.239Z,20.60
2022-07-29T20:50:14.296Z,20.60
2022-07-29T20:52:43.373Z,20.50
2022-07-29T20:55:10.739Z,20.50
2022-07-29T20:57:39.243Z,20.40
2022-07-29T21:00:08.426Z,20.30
2022-07-29T21:02:36.991Z,20.20
2022-07-29T21:05:05.585Z,20.10
2022-07-29T21:07:32.511Z,20.10
2022-07-29T21:09:59.470Z,20.00
2022-07-29T21:12:26.743Z,19.90
2022-07-29T21:14:53.818Z,19.90
2022-07-29T21:17:22.394Z,19.80
2022-07-29T21:19:54.160Z,19.80
2022-07-29T21:22:22.270Z,19.80
2022-07-29T21:24:49.803Z,19.70
2022-07-29T21:27:38.279Z,19.60
2022-07-29T21:30:13.274Z,19.50
2022-07-29T21:32:40.506Z,19.40
2022-07-29T21:35:15.184Z,19.30
2022-07-29T21:37:54.417Z,19.20
2022-07-29T21:40:21.470Z,19.30
2022-07-29T21:42:48.412Z,19.30
2022-07-29T21:45:16.938Z,19.20
2022-07-29T21:47:43.855Z,19.20
2022-07-29T21:50:10.846Z,19.20
2022-07-29T21:52:39.190Z,19.10
2022-07-29T21:55:07.755Z,19.10
2022-07-29T21:57:38.137Z,18.90
2022-07-29T22:00:08.242Z,18.80
2022-07-29T22:02:35.380Z,18.70
2022-07-29T22:05:02.375Z,18.60
2022-07-29T22:07:54.474Z,18.50
2022-07-29T22:10:17.175Z,18.40
2022-07-29T22:12:44.408Z,18.30
2022-07-29T22:15:12.065Z,18.20
2022-07-29T22:17:41.923Z,18.10
2022-07-29T22:20:10.092Z,18.10
2022-07-29T22:22:37.119Z,18.10
2022-07-29T22:25:11.157Z,18.10
2022-07-29T22:27:38.189Z,18.10
2022-07-29T22:30:06.987Z,18.00
2022-07-29T22:32:34.907Z,18.00
2022-07-29T22:35:02.059Z,17.90
2022-07-29T22:37:29.761Z,17.90
2022-07-29T22:39:57.015Z,17.90
2022-07-29T22:42:24.043Z,17.90
2022-07-29T22:44:50.940Z,17.90
2022-07-29T22:47:18.199Z,17.90
2022-07-29T22:50:05.909Z,17.90
2022-07-29T22:52:33.274Z,17.90
2022-07-29T22:55:00.354Z,17.90
2022-07-29T22:57:27.985Z,17.90
2022-07-29T22:59:55.001Z,17.90
2022-07-29T23:02:21.977Z,17.80
2022-07-29T23:04:48.950Z,17.90
2022-07-29T23:07:15.967Z,17.90
2022-07-29T23:09:43.408Z,18.00
2022-07-29T23:12:10.477Z,18.10
2022-07-29T23:14:37.394Z,18.10
2022-07-29T23:17:05.402Z,18.00
2022-07-29T23:19:32.826Z,18.00
2022-07-29T23:21:59.761Z,17.90
2022-07-29T23:24:27.002Z,17.80
2022-07-29T23:26:53.989Z,17.80
2022-07-29T23:29:20.893Z,17.70
2022-07-29T23:31:48.537Z,17.70
2022-07-29T23:34:15.937Z,17.70
2022-07-29T23:36:43.108Z,17.70
2022-07-29T23:39:11.417Z,17.70
2022-07-29T23:41:39.113Z,17.70
2022-07-29T23:44:06.275Z,17.70
2022-07-29T23:46:33.354Z,17.60
2022-07-29T23:49:00.943Z,17.50
2022-07-29T23:51:29.433Z,17.50
2022-07-29T23:53:56.814Z,17.40
2022-07-29T23:56:26.686Z,17.30
2022-07-29T23:58:54.408Z,17.30
